sensor_id;sensor_type;location;lat;lon;timestamp;P1;durP1;ratioP1;P2;durP2;ratioP2
37379;SDS011;23252;-33.992;18.480;2023-05-21T00:00:40;7.93;;;2.50;;
37379;SDS011;23252;-33.992;18.480;2023-05-21T00:03:07;8.88;;;2.22;;
37379;SDS011;23252;-33.992;18.480;2023-05-21T00:05:38;12.63;;;3.38;;
37379;SDS011;23252;-33.992;18.480;2023-05-21T00:10:31;10.55;;;3.00;;
37379;SDS011;23252;-33.992;18.480;2023-05-21T00:12:57;8.37;;;3.10;;
37379;SDS011;23252;-33.992;18.480;2023-05-21T00:15:24;9.60;;;3.03;;
37379;SDS011;23252;-33.992;18.480;2023-05-21T00:17:51;8.55;;;2.97;;
37379;SDS011;23252;-33.992;18.480;2023-05-21T00:20:17;9.07;;;3.27;;
37379;SDS011;23252;-33.992;18.480;2023-05-21T00:22:44;9.43;;;3.30;;
37379;SDS011;23252;-33.992;18.480;2023-05-21T00:25:12;8.15;;;2.80;;
37379;SDS011;23252;-33.992;18.480;2023-05-21T00:27:38;6.03;;;2.20;;
37379;SDS011;23252;-33.992;18.480;2023-05-21T00:30:05;4.07;;;1.80;;
37379;SDS011;23252;-33.992;18.480;2023-05-21T00:32:32;6.05;;;1.70;;
37379;SDS011;23252;-33.992;18.480;2023-05-21T00:34:58;7.80;;;2.17;;
37379;SDS011;23252;-33.992;18.480;2023-05-21T00:37:25;6.80;;;1.95;;
37379;SDS011;23252;-33.992;18.480;2023-05-21T00:39:53;6.10;;;2.50;;
37379;SDS011;23252;-33.992;18.480;2023-05-21T00:42:20;15.00;;;3.33;;
37379;SDS011;23252;-33.992;18.480;2023-05-21T00:44:51;14.00;;;4.43;;
37379;SDS011;23252;-33.992;18.480;2023-05-21T00:47:18;15.13;;;3.60;;
37379;SDS011;23252;-33.992;18.480;2023-05-21T00:49:46;12.63;;;3.95;;
37379;SDS011;23252;-33.992;18.480;2023-05-21T00:52:15;12.30;;;3.35;;
37379;SDS011;23252;-33.992;18.480;2023-05-21T00:54:50;10.48;;;3.13;;
37379;SDS011;23252;-33.992;18.480;2023-05-21T00:57:19;13.00;;;3.28;;
37379;SDS011;23252;-33.992;18.480;2023-05-21T00:59:50;7.32;;;2.40;;
37379;SDS011;23252;-33.992;18.480;2023-05-21T01:02:17;14.63;;;2.90;;
37379;SDS011;23252;-33.992;18.480;2023-05-21T01:04:44;9.30;;;2.40;;
37379;SDS011;23252;-33.992;18.480;2023-05-21T01:07:11;14.65;;;2.92;;
37379;SDS011;23252;-33.992;18.480;2023-05-21T01:09:39;8.48;;;2.90;;
37379;SDS011;23252;-33.992;18.480;2023-05-21T01:12:07;8.18;;;3.30;;
37379;SDS011;23252;-33.992;18.480;2023-05-21T01:14:35;10.88;;;3.72;;
37379;SDS011;23252;-33.992;18.480;2023-05-21T01:17:03;6.22;;;3.05;;
37379;SDS011;23252;-33.992;18.480;2023-05-21T01:19:34;8.48;;;3.58;;
37379;SDS011;23252;-33.992;18.480;2023-05-21T01:22:05;8.40;;;2.85;;
37379;SDS011;23252;-33.992;18.480;2023-05-21T01:24:32;5.15;;;2.70;;
37379;SDS011;23252;-33.992;18.480;2023-05-21T01:27:00;4.10;;;2.20;;
37379;SDS011;23252;-33.992;18.480;2023-05-21T01:29:27;2.35;;;1.30;;
37379;SDS011;23252;-33.992;18.480;2023-05-21T01:34:41;3.58;;;0.80;;
37379;SDS011;23252;-33.992;18.480;2023-05-21T01:40:50;1.10;;;0.70;;
37379;SDS011;23252;-33.992;18.480;2023-05-21T01:42:52;3.15;;;0.90;;
37379;SDS011;23252;-33.992;18.480;2023-05-21T01:45:18;4.82;;;0.82;;
37379;SDS011;23252;-33.992;18.480;2023-05-21T01:47:48;4.38;;;1.15;;
37379;SDS011;23252;-33.992;18.480;2023-05-21T01:50:17;6.22;;;1.20;;
37379;SDS011;23252;-33.992;18.480;2023-05-21T01:52:54;5.72;;;0.90;;
37379;SDS011;23252;-33.992;18.480;2023-05-21T01:55:28;2.80;;;0.98;;
37379;SDS011;23252;-33.992;18.480;2023-05-21T01:57:55;8.43;;;1.42;;
37379;SDS011;23252;-33.992;18.480;2023-05-21T02:00:23;7.20;;;1.50;;
37379;SDS011;23252;-33.992;18.480;2023-05-21T02:02:52;8.63;;;1.30;;
37379;SDS011;23252;-33.992;18.480;2023-05-21T02:05:19;8.37;;;2.10;;
37379;SDS011;23252;-33.992;18.480;2023-05-21T02:07:45;11.55;;;2.35;;
37379;SDS011;23252;-33.992;18.480;2023-05-21T02:10:12;11.00;;;3.63;;
37379;SDS011;23252;-33.992;18.480;2023-05-21T02:12:39;7.90;;;3.17;;
37379;SDS011;23252;-33.992;18.480;2023-05-21T02:15:05;12.10;;;4.22;;
37379;SDS011;23252;-33.992;18.480;2023-05-21T02:17:32;17.45;;;6.05;;
37379;SDS011;23252;-33.992;18.480;2023-05-21T02:19:59;16.33;;;6.78;;
37379;SDS011;23252;-33.992;18.480;2023-05-21T02:22:45;19.52;;;6.95;;
37379;SDS011;23252;-33.992;18.480;2023-05-21T02:25:13;15.73;;;7.10;;
37379;SDS011;23252;-33.992;18.480;2023-05-21T02:27:43;15.48;;;6.35;;
37379;SDS011;23252;-33.992;18.480;2023-05-21T02:30:11;12.70;;;6.25;;
37379;SDS011;23252;-33.992;18.480;2023-05-21T02:32:40;24.58;;;9.43;;
37379;SDS011;23252;-33.992;18.480;2023-05-21T02:35:08;26.20;;;10.32;;
37379;SDS011;23252;-33.992;18.480;2023-05-21T02:37:36;17.10;;;7.38;;
37379;SDS011;23252;-33.992;18.480;2023-05-21T02:40:04;17.40;;;6.70;;
37379;SDS011;23252;-33.992;18.480;2023-05-21T02:42:31;21.33;;;7.40;;
37379;SDS011;23252;-33.992;18.480;2023-05-21T02:44:58;16.15;;;5.85;;
37379;SDS011;23252;-33.992;18.480;2023-05-21T02:47:25;16.73;;;6.10;;
37379;SDS011;23252;-33.992;18.480;2023-05-21T02:49:51;18.58;;;7.85;;
37379;SDS011;23252;-33.992;18.480;2023-05-21T02:52:18;16.95;;;7.53;;
37379;SDS011;23252;-33.992;18.480;2023-05-21T02:54:48;23.85;;;7.10;;
37379;SDS011;23252;-33.992;18.480;2023-05-21T02:57:14;15.57;;;6.90;;
37379;SDS011;23252;-33.992;18.480;2023-05-21T02:59:42;21.05;;;8.98;;
37379;SDS011;23252;-33.992;18.480;2023-05-21T03:04:36;20.00;;;9.93;;
37379;SDS011;23252;-33.992;18.480;2023-05-21T03:07:03;18.90;;;9.50;;
37379;SDS011;23252;-33.992;18.480;2023-05-21T03:11:57;11.90;;;6.88;;
37379;SDS011;23252;-33.992;18.480;2023-05-21T03:14:24;12.50;;;5.95;;
37379;SDS011;23252;-33.992;18.480;2023-05-21T03:16:50;12.73;;;5.23;;
37379;SDS011;23252;-33.992;18.480;2023-05-21T03:19:17;7.93;;;4.97;;
37379;SDS011;23252;-33.992;18.480;2023-05-21T03:21:45;12.18;;;4.93;;
37379;SDS011;23252;-33.992;18.480;2023-05-21T03:24:13;7.30;;;4.47;;
37379;SDS011;23252;-33.992;18.480;2023-05-21T03:26:39;5.47;;;3.92;;
37379;SDS011;23252;-33.992;18.480;2023-05-21T03:29:06;5.53;;;2.78;;
37379;SDS011;23252;-33.992;18.480;2023-05-21T03:31:32;4.70;;;2.33;;
37379;SDS011;23252;-33.992;18.480;2023-05-21T03:33:59;6.83;;;1.93;;
37379;SDS011;23252;-33.992;18.480;2023-05-21T03:36:25;2.75;;;1.70;;
37379;SDS011;23252;-33.992;18.480;2023-05-21T03:38:52;5.10;;;1.80;;
37379;SDS011;23252;-33.992;18.480;2023-05-21T03:41:18;5.32;;;1.63;;
37379;SDS011;23252;-33.992;18.480;2023-05-21T03:43:45;6.75;;;1.58;;
37379;SDS011;23252;-33.992;18.480;2023-05-21T03:46:11;5.00;;;1.77;;
37379;SDS011;23252;-33.992;18.480;2023-05-21T03:48:38;5.68;;;1.30;;
37379;SDS011;23252;-33.992;18.480;2023-05-21T03:51:04;3.90;;;1.53;;
37379;SDS011;23252;-33.992;18.480;2023-05-21T03:53:32;5.05;;;1.50;;
37379;SDS011;23252;-33.992;18.480;2023-05-21T03:55:59;7.13;;;1.80;;
37379;SDS011;23252;-33.992;18.480;2023-05-21T03:58:25;4.68;;;1.20;;
37379;SDS011;23252;-33.992;18.480;2023-05-21T04:00:52;10.88;;;1.90;;
37379;SDS011;23252;-33.992;18.480;2023-05-21T04:03:18;7.57;;;2.15;;
37379;SDS011;23252;-33.992;18.480;2023-05-21T04:05:45;9.33;;;2.20;;
37379;SDS011;23252;-33.992;18.480;2023-05-21T04:08:11;8.90;;;3.00;;
37379;SDS011;23252;-33.992;18.480;2023-05-21T04:10:38;7.88;;;3.20;;
37379;SDS011;23252;-33.992;18.480;2023-05-21T04:13:04;10.00;;;3.17;;
37379;SDS011;23252;-33.992;18.480;2023-05-21T04:15:31;12.27;;;4.40;;
37379;SDS011;23252;-33.992;18.480;2023-05-21T04:17:59;11.40;;;4.50;;
37379;SDS011;23252;-33.992;18.480;2023-05-21T04:20:39;14.65;;;4.97;;
37379;SDS011;23252;-33.992;18.480;2023-05-21T04:23:11;17.83;;;5.90;;
37379;SDS011;23252;-33.992;18.480;2023-05-21T04:25:44;12.90;;;5.15;;
37379;SDS011;23252;-33.992;18.480;2023-05-21T04:28:14;14.57;;;5.63;;
37379;SDS011;23252;-33.992;18.480;2023-05-21T04:30:45;15.48;;;6.10;;
37379;SDS011;23252;-33.992;18.480;2023-05-21T04:33:17;15.95;;;5.80;;
37379;SDS011;23252;-33.992;18.480;2023-05-21T04:35:49;15.80;;;7.05;;
37379;SDS011;23252;-33.992;18.480;2023-05-21T04:38:16;15.00;;;6.18;;
37379;SDS011;23252;-33.992;18.480;2023-05-21T04:40:53;21.17;;;7.45;;
37379;SDS011;23252;-33.992;18.480;2023-05-21T04:43:25;20.50;;;7.18;;
37379;SDS011;23252;-33.992;18.480;2023-05-21T04:45:52;15.55;;;7.32;;
37379;SDS011;23252;-33.992;18.480;2023-05-21T04:48:22;20.15;;;7.38;;
37379;SDS011;23252;-33.992;18.480;2023-05-21T04:50:58;21.38;;;7.65;;
37379;SDS011;23252;-33.992;18.480;2023-05-21T04:53:33;18.55;;;6.60;;
37379;SDS011;23252;-33.992;18.480;2023-05-21T04:56:00;20.53;;;6.40;;
37379;SDS011;23252;-33.992;18.480;2023-05-21T04:58:34;18.67;;;6.30;;
37379;SDS011;23252;-33.992;18.480;2023-05-21T05:01:01;15.10;;;5.50;;
37379;SDS011;23252;-33.992;18.480;2023-05-21T05:05:54;15.47;;;5.40;;
37379;SDS011;23252;-33.992;18.480;2023-05-21T05:08:21;13.45;;;5.05;;
37379;SDS011;23252;-33.992;18.480;2023-05-21T05:10:47;12.63;;;4.53;;
37379;SDS011;23252;-33.992;18.480;2023-05-21T05:13:17;16.27;;;5.18;;
37379;SDS011;23252;-33.992;18.480;2023-05-21T05:15:43;13.07;;;4.03;;
37379;SDS011;23252;-33.992;18.480;2023-05-21T05:18:16;11.05;;;4.22;;
37379;SDS011;23252;-33.992;18.480;2023-05-21T05:20:48;12.60;;;4.40;;
37379;SDS011;23252;-33.992;18.480;2023-05-21T05:23:18;10.95;;;4.60;;
37379;SDS011;23252;-33.992;18.480;2023-05-21T05:25:44;8.20;;;3.57;;
37379;SDS011;23252;-33.992;18.480;2023-05-21T05:28:14;8.52;;;3.83;;
37379;SDS011;23252;-33.992;18.480;2023-05-21T05:30:43;9.93;;;4.00;;
37379;SDS011;23252;-33.992;18.480;2023-05-21T05:33:12;9.07;;;2.90;;
37379;SDS011;23252;-33.992;18.480;2023-05-21T05:35:42;6.63;;;2.70;;
37379;SDS011;23252;-33.992;18.480;2023-05-21T05:38:18;6.93;;;2.20;;
37379;SDS011;23252;-33.992;18.480;2023-05-21T05:40:50;4.53;;;1.20;;
37379;SDS011;23252;-33.992;18.480;2023-05-21T05:43:17;3.42;;;1.20;;
37379;SDS011;23252;-33.992;18.480;2023-05-21T05:45:44;3.57;;;0.80;;
37379;SDS011;23252;-33.992;18.480;2023-05-21T05:48:10;5.30;;;0.80;;
37379;SDS011;23252;-33.992;18.480;2023-05-21T05:50:41;4.07;;;0.85;;
37379;SDS011;23252;-33.992;18.480;2023-05-21T05:53:10;8.20;;;1.27;;
37379;SDS011;23252;-33.992;18.480;2023-05-21T05:55:39;3.45;;;0.80;;
37379;SDS011;23252;-33.992;18.480;2023-05-21T05:58:06;11.73;;;0.93;;
37379;SDS011;23252;-33.992;18.480;2023-05-21T06:00:54;10.98;;;1.35;;
37379;SDS011;23252;-33.992;18.480;2023-05-21T06:03:24;10.68;;;1.50;;
37379;SDS011;23252;-33.992;18.480;2023-05-21T06:05:59;11.65;;;1.52;;
37379;SDS011;23252;-33.992;18.480;2023-05-21T06:08:29;11.68;;;1.95;;
37379;SDS011;23252;-33.992;18.480;2023-05-21T06:10:55;13.70;;;1.80;;
37379;SDS011;23252;-33.992;18.480;2023-05-21T06:13:27;8.07;;;1.50;;
37379;SDS011;23252;-33.992;18.480;2023-05-21T06:15:54;9.70;;;1.58;;
37379;SDS011;23252;-33.992;18.480;2023-05-21T06:18:20;13.43;;;1.42;;
37379;SDS011;23252;-33.992;18.480;2023-05-21T06:20:50;12.05;;;1.70;;
37379;SDS011;23252;-33.992;18.480;2023-05-21T06:23:17;15.97;;;1.60;;
37379;SDS011;23252;-33.992;18.480;2023-05-21T06:25:43;9.68;;;1.67;;
37379;SDS011;23252;-33.992;18.480;2023-05-21T06:28:13;11.30;;;1.58;;
37379;SDS011;23252;-33.992;18.480;2023-05-21T06:30:42;10.20;;;2.10;;
37379;SDS011;23252;-33.992;18.480;2023-05-21T06:33:08;12.68;;;1.70;;
37379;SDS011;23252;-33.992;18.480;2023-05-21T06:35:35;10.23;;;1.50;;
37379;SDS011;23252;-33.992;18.480;2023-05-21T06:38:04;11.93;;;1.27;;
37379;SDS011;23252;-33.992;18.480;2023-05-21T06:40:33;8.40;;;1.38;;
37379;SDS011;23252;-33.992;18.480;2023-05-21T06:43:05;11.32;;;1.77;;
37379;SDS011;23252;-33.992;18.480;2023-05-21T06:45:35;13.05;;;1.73;;
37379;SDS011;23252;-33.992;18.480;2023-05-21T06:48:04;11.25;;;2.55;;
37379;SDS011;23252;-33.992;18.480;2023-05-21T06:50:31;10.93;;;2.60;;
37379;SDS011;23252;-33.992;18.480;2023-05-21T06:53:02;13.13;;;2.40;;
37379;SDS011;23252;-33.992;18.480;2023-05-21T06:55:32;13.20;;;2.47;;
37379;SDS011;23252;-33.992;18.480;2023-05-21T06:58:01;10.07;;;2.47;;
37379;SDS011;23252;-33.992;18.480;2023-05-21T07:00:28;15.80;;;2.83;;
37379;SDS011;23252;-33.992;18.480;2023-05-21T07:03:03;14.68;;;2.75;;
37379;SDS011;23252;-33.992;18.480;2023-05-21T07:05:30;17.25;;;2.70;;
37379;SDS011;23252;-33.992;18.480;2023-05-21T07:07:56;13.43;;;2.93;;
37379;SDS011;23252;-33.992;18.480;2023-05-21T07:10:25;18.48;;;2.88;;
37379;SDS011;23252;-33.992;18.480;2023-05-21T07:12:52;14.48;;;2.65;;
37379;SDS011;23252;-33.992;18.480;2023-05-21T07:15:24;16.73;;;3.33;;
37379;SDS011;23252;-33.992;18.480;2023-05-21T07:17:51;15.23;;;3.08;;
37379;SDS011;23252;-33.992;18.480;2023-05-21T07:20:17;22.57;;;3.93;;
37379;SDS011;23252;-33.992;18.480;2023-05-21T07:22:46;19.35;;;3.70;;
37379;SDS011;23252;-33.992;18.480;2023-05-21T07:25:16;20.92;;;3.80;;
37379;SDS011;23252;-33.992;18.480;2023-05-21T07:27:45;23.10;;;3.60;;
37379;SDS011;23252;-33.992;18.480;2023-05-21T07:30:12;20.23;;;4.40;;
37379;SDS011;23252;-33.992;18.480;2023-05-21T07:32:42;20.25;;;4.53;;
37379;SDS011;23252;-33.992;18.480;2023-05-21T07:35:08;19.87;;;4.17;;
37379;SDS011;23252;-33.992;18.480;2023-05-21T07:37:38;21.48;;;4.22;;
37379;SDS011;23252;-33.992;18.480;2023-05-21T07:40:10;20.53;;;3.67;;
37379;SDS011;23252;-33.992;18.480;2023-05-21T07:42:40;28.63;;;4.00;;
37379;SDS011;23252;-33.992;18.480;2023-05-21T07:45:10;18.35;;;4.07;;
37379;SDS011;23252;-33.992;18.480;2023-05-21T07:47:37;26.65;;;4.43;;
37379;SDS011;23252;-33.992;18.480;2023-05-21T07:50:13;26.70;;;3.67;;
37379;SDS011;23252;-33.992;18.480;2023-05-21T07:52:45;30.20;;;3.90;;
37379;SDS011;23252;-33.992;18.480;2023-05-21T07:55:15;23.58;;;3.40;;
37379;SDS011;23252;-33.992;18.480;2023-05-21T07:57:41;19.83;;;3.20;;
37379;SDS011;23252;-33.992;18.480;2023-05-21T08:00:14;22.15;;;4.03;;
37379;SDS011;23252;-33.992;18.480;2023-05-21T08:02:46;29.13;;;4.60;;
37379;SDS011;23252;-33.992;18.480;2023-05-21T08:05:16;20.80;;;3.45;;
37379;SDS011;23252;-33.992;18.480;2023-05-21T08:07:43;21.98;;;3.85;;
37379;SDS011;23252;-33.992;18.480;2023-05-21T08:10:10;18.08;;;3.20;;
37379;SDS011;23252;-33.992;18.480;2023-05-21T08:12:43;18.25;;;2.83;;
37379;SDS011;23252;-33.992;18.480;2023-05-21T08:15:16;24.05;;;3.85;;
37379;SDS011;23252;-33.992;18.480;2023-05-21T08:17:43;22.92;;;3.78;;
37379;SDS011;23252;-33.992;18.480;2023-05-21T08:20:15;21.90;;;3.50;;
37379;SDS011;23252;-33.992;18.480;2023-05-21T08:22:47;28.13;;;4.03;;
37379;SDS011;23252;-33.992;18.480;2023-05-21T08:25:18;17.38;;;3.30;;
37379;SDS011;23252;-33.992;18.480;2023-05-21T08:27:47;23.73;;;3.70;;
37379;SDS011;23252;-33.992;18.480;2023-05-21T08:30:13;24.20;;;3.35;;
37379;SDS011;23252;-33.992;18.480;2023-05-21T08:32:40;23.95;;;3.70;;
37379;SDS011;23252;-33.992;18.480;2023-05-21T08:35:15;22.55;;;3.95;;
37379;SDS011;23252;-33.992;18.480;2023-05-21T08:37:42;21.27;;;3.88;;
37379;SDS011;23252;-33.992;18.480;2023-05-21T08:40:09;22.30;;;3.70;;
37379;SDS011;23252;-33.992;18.480;2023-05-21T08:42:48;18.90;;;4.10;;
37379;SDS011;23252;-33.992;18.480;2023-05-21T08:45:21;21.52;;;3.90;;
37379;SDS011;23252;-33.992;18.480;2023-05-21T08:47:53;24.00;;;4.18;;
37379;SDS011;23252;-33.992;18.480;2023-05-21T08:50:21;24.30;;;3.95;;
37379;SDS011;23252;-33.992;18.480;2023-05-21T08:52:54;25.98;;;6.20;;
37379;SDS011;23252;-33.992;18.480;2023-05-21T08:55:29;26.90;;;5.07;;
37379;SDS011;23252;-33.992;18.480;2023-05-21T08:58:03;27.85;;;4.43;;
37379;SDS011;23252;-33.992;18.480;2023-05-21T09:00:29;20.05;;;4.05;;
37379;SDS011;23252;-33.992;18.480;2023-05-21T09:03:03;29.65;;;4.68;;
37379;SDS011;23252;-33.992;18.480;2023-05-21T09:05:41;25.45;;;4.65;;
37379;SDS011;23252;-33.992;18.480;2023-05-21T09:08:20;27.38;;;4.80;;
37379;SDS011;23252;-33.992;18.480;2023-05-21T09:10:52;29.63;;;4.80;;
37379;SDS011;23252;-33.992;18.480;2023-05-21T09:13:21;29.95;;;4.65;;
37379;SDS011;23252;-33.992;18.480;2023-05-21T09:15:51;28.10;;;4.80;;
37379;SDS011;23252;-33.992;18.480;2023-05-21T09:18:17;36.63;;;4.50;;
37379;SDS011;23252;-33.992;18.480;2023-05-21T09:20:44;23.67;;;5.60;;
37379;SDS011;23252;-33.992;18.480;2023-05-21T09:23:15;26.67;;;3.85;;
37379;SDS011;23252;-33.992;18.480;2023-05-21T09:25:48;24.60;;;3.65;;
37379;SDS011;23252;-33.992;18.480;2023-05-21T09:28:18;25.00;;;4.03;;
37379;SDS011;23252;-33.992;18.480;2023-05-21T09:30:50;25.03;;;3.93;;
37379;SDS011;23252;-33.992;18.480;2023-05-21T09:33:23;23.75;;;4.35;;
37379;SDS011;23252;-33.992;18.480;2023-05-21T09:35:57;25.15;;;4.75;;
37379;SDS011;23252;-33.992;18.480;2023-05-21T09:38:29;24.13;;;3.90;;
37379;SDS011;23252;-33.992;18.480;2023-05-21T09:41:03;22.88;;;4.45;;
37379;SDS011;23252;-33.992;18.480;2023-05-21T09:43:30;17.63;;;3.38;;
37379;SDS011;23252;-33.992;18.480;2023-05-21T09:45:58;23.90;;;3.50;;
37379;SDS011;23252;-33.992;18.480;2023-05-21T09:48:42;25.73;;;4.43;;
37379;SDS011;23252;-33.992;18.480;2023-05-21T09:51:15;19.98;;;3.22;;
37379;SDS011;23252;-33.992;18.480;2023-05-21T09:53:53;28.60;;;2.92;;
37379;SDS011;23252;-33.992;18.480;2023-05-21T09:56:26;18.35;;;2.95;;
37379;SDS011;23252;-33.992;18.480;2023-05-21T09:58:59;18.13;;;3.10;;
37379;SDS011;23252;-33.992;18.480;2023-05-21T10:01:35;22.35;;;3.67;;
37379;SDS011;23252;-33.992;18.480;2023-05-21T10:04:07;17.27;;;3.35;;
37379;SDS011;23252;-33.992;18.480;2023-05-21T10:06:43;19.15;;;2.97;;
37379;SDS011;23252;-33.992;18.480;2023-05-21T10:09:17;20.60;;;2.72;;
37379;SDS011;23252;-33.992;18.480;2023-05-21T10:11:44;21.33;;;3.65;;
37379;SDS011;23252;-33.992;18.480;2023-05-21T10:14:15;21.77;;;3.60;;
37379;SDS011;23252;-33.992;18.480;2023-05-21T10:16:45;21.30;;;3.67;;
37379;SDS011;23252;-33.992;18.480;2023-05-21T10:19:13;16.60;;;3.03;;
37379;SDS011;23252;-33.992;18.480;2023-05-21T10:21:40;27.52;;;3.15;;
37379;SDS011;23252;-33.992;18.480;2023-05-21T10:26:34;19.52;;;3.47;;
37379;SDS011;23252;-33.992;18.480;2023-05-21T10:29:02;18.58;;;3.30;;
37379;SDS011;23252;-33.992;18.480;2023-05-21T10:31:29;20.83;;;3.00;;
37379;SDS011;23252;-33.992;18.480;2023-05-21T10:33:57;21.13;;;3.58;;
37379;SDS011;23252;-33.992;18.480;2023-05-21T10:36:24;20.65;;;3.00;;
37379;SDS011;23252;-33.992;18.480;2023-05-21T10:38:55;20.60;;;3.28;;
37379;SDS011;23252;-33.992;18.480;2023-05-21T10:41:23;20.50;;;3.05;;
37379;SDS011;23252;-33.992;18.480;2023-05-21T10:46:44;16.08;;;2.95;;
37379;SDS011;23252;-33.992;18.480;2023-05-21T10:49:25;13.75;;;3.15;;
37379;SDS011;23252;-33.992;18.480;2023-05-21T11:00:54;21.90;;;4.00;;
37379;SDS011;23252;-33.992;18.480;2023-05-21T11:03:21;18.38;;;3.47;;
37379;SDS011;23252;-33.992;18.480;2023-05-21T11:08:23;18.77;;;3.55;;
37379;SDS011;23252;-33.992;18.480;2023-05-21T11:10:50;22.08;;;3.00;;
37379;SDS011;23252;-33.992;18.480;2023-05-21T11:13:23;18.15;;;2.63;;
37379;SDS011;23252;-33.992;18.480;2023-05-21T11:19:15;23.27;;;3.72;;
37379;SDS011;23252;-33.992;18.480;2023-05-21T11:21:10;18.77;;;2.60;;
37379;SDS011;23252;-33.992;18.480;2023-05-21T11:23:52;17.15;;;3.20;;
37379;SDS011;23252;-33.992;18.480;2023-05-21T11:26:20;17.10;;;3.92;;
37379;SDS011;23252;-33.992;18.480;2023-05-21T11:31:31;21.52;;;3.65;;
37379;SDS011;23252;-33.992;18.480;2023-05-21T11:34:23;19.15;;;2.72;;
37379;SDS011;23252;-33.992;18.480;2023-05-21T11:39:45;21.67;;;3.40;;
37379;SDS011;23252;-33.992;18.480;2023-05-21T11:42:13;16.42;;;2.97;;
37379;SDS011;23252;-33.992;18.480;2023-05-21T11:45:00;24.98;;;3.75;;
37379;SDS011;23252;-33.992;18.480;2023-05-21T11:47:28;20.83;;;3.40;;
37379;SDS011;23252;-33.992;18.480;2023-05-21T11:49:57;19.77;;;3.55;;
37379;SDS011;23252;-33.992;18.480;2023-05-21T11:52:27;25.90;;;3.42;;
37379;SDS011;23252;-33.992;18.480;2023-05-21T11:54:57;18.77;;;2.97;;
37379;SDS011;23252;-33.992;18.480;2023-05-21T11:57:27;17.83;;;3.15;;
37379;SDS011;23252;-33.992;18.480;2023-05-21T11:59:57;15.15;;;2.47;;
37379;SDS011;23252;-33.992;18.480;2023-05-21T12:02:26;17.77;;;3.05;;
37379;SDS011;23252;-33.992;18.480;2023-05-21T12:04:56;22.77;;;3.08;;
37379;SDS011;23252;-33.992;18.480;2023-05-21T12:07:25;17.55;;;3.28;;
37379;SDS011;23252;-33.992;18.480;2023-05-21T12:09:54;23.88;;;3.15;;
37379;SDS011;23252;-33.992;18.480;2023-05-21T12:12:21;22.52;;;2.83;;
37379;SDS011;23252;-33.992;18.480;2023-05-21T12:14:52;16.90;;;2.83;;
37379;SDS011;23252;-33.992;18.480;2023-05-21T12:17:23;15.43;;;2.58;;
37379;SDS011;23252;-33.992;18.480;2023-05-21T12:19:53;22.98;;;3.13;;
37379;SDS011;23252;-33.992;18.480;2023-05-21T12:22:23;13.18;;;2.60;;
37379;SDS011;23252;-33.992;18.480;2023-05-21T12:24:52;21.35;;;3.20;;
37379;SDS011;23252;-33.992;18.480;2023-05-21T12:27:20;14.52;;;2.05;;
37379;SDS011;23252;-33.992;18.480;2023-05-21T12:29:48;15.57;;;2.53;;
37379;SDS011;23252;-33.992;18.480;2023-05-21T12:32:16;17.92;;;3.05;;
37379;SDS011;23252;-33.992;18.480;2023-05-21T12:37:15;12.57;;;3.22;;
37379;SDS011;23252;-33.992;18.480;2023-05-21T12:39:50;13.13;;;2.35;;
37379;SDS011;23252;-33.992;18.480;2023-05-21T12:42:25;14.95;;;2.55;;
37379;SDS011;23252;-33.992;18.480;2023-05-21T12:44:55;12.52;;;1.95;;
37379;SDS011;23252;-33.992;18.480;2023-05-21T12:47:22;15.55;;;2.20;;
37379;SDS011;23252;-33.992;18.480;2023-05-21T12:49:52;12.60;;;2.15;;
37379;SDS011;23252;-33.992;18.480;2023-05-21T12:52:22;17.25;;;3.10;;
37379;SDS011;23252;-33.992;18.480;2023-05-21T12:54:50;12.93;;;1.65;;
37379;SDS011;23252;-33.992;18.480;2023-05-21T12:57:18;12.73;;;2.08;;
37379;SDS011;23252;-33.992;18.480;2023-05-21T12:59:53;13.57;;;2.08;;
37379;SDS011;23252;-33.992;18.480;2023-05-21T13:02:22;16.85;;;2.58;;
37379;SDS011;23252;-33.992;18.480;2023-05-21T13:04:56;14.32;;;2.10;;
37379;SDS011;23252;-33.992;18.480;2023-05-21T13:07:24;11.70;;;1.75;;
37379;SDS011;23252;-33.992;18.480;2023-05-21T13:09:51;15.43;;;2.50;;
37379;SDS011;23252;-33.992;18.480;2023-05-21T13:12:19;9.20;;;1.58;;
37379;SDS011;23252;-33.992;18.480;2023-05-21T13:14:47;15.13;;;2.20;;
37379;SDS011;23252;-33.992;18.480;2023-05-21T13:17:18;19.42;;;2.65;;
37379;SDS011;23252;-33.992;18.480;2023-05-21T13:20:02;10.05;;;1.80;;
37379;SDS011;23252;-33.992;18.480;2023-05-21T13:22:35;10.77;;;1.92;;
37379;SDS011;23252;-33.992;18.480;2023-05-21T13:25:11;12.68;;;1.95;;
37379;SDS011;23252;-33.992;18.480;2023-05-21T13:27:43;12.23;;;1.98;;
37379;SDS011;23252;-33.992;18.480;2023-05-21T13:30:09;8.38;;;1.70;;
37379;SDS011;23252;-33.992;18.480;2023-05-21T13:32:37;12.52;;;2.47;;
37379;SDS011;23252;-33.992;18.480;2023-05-21T13:35:04;13.20;;;1.95;;
37379;SDS011;23252;-33.992;18.480;2023-05-21T13:37:32;9.40;;;1.83;;
37379;SDS011;23252;-33.992;18.480;2023-05-21T13:40:05;8.07;;;1.63;;
37379;SDS011;23252;-33.992;18.480;2023-05-21T13:42:35;14.43;;;1.70;;
37379;SDS011;23252;-33.992;18.480;2023-05-21T13:45:03;13.02;;;1.98;;
37379;SDS011;23252;-33.992;18.480;2023-05-21T13:47:31;17.98;;;2.17;;
37379;SDS011;23252;-33.992;18.480;2023-05-21T13:49:58;9.82;;;1.75;;
37379;SDS011;23252;-33.992;18.480;2023-05-21T13:52:25;16.45;;;2.45;;
37379;SDS011;23252;-33.992;18.480;2023-05-21T13:54:51;20.20;;;2.47;;
37379;SDS011;23252;-33.992;18.480;2023-05-21T13:57:18;15.35;;;2.17;;
37379;SDS011;23252;-33.992;18.480;2023-05-21T13:59:44;9.57;;;2.30;;
37379;SDS011;23252;-33.992;18.480;2023-05-21T14:02:11;10.97;;;1.77;;
37379;SDS011;23252;-33.992;18.480;2023-05-21T14:04:37;11.57;;;2.35;;
37379;SDS011;23252;-33.992;18.480;2023-05-21T14:07:04;11.90;;;1.98;;
37379;SDS011;23252;-33.992;18.480;2023-05-21T14:09:31;14.32;;;2.22;;
37379;SDS011;23252;-33.992;18.480;2023-05-21T14:11:58;14.63;;;2.38;;
37379;SDS011;23252;-33.992;18.480;2023-05-21T14:16:51;12.13;;;2.28;;
37379;SDS011;23252;-33.992;18.480;2023-05-21T14:19:19;12.40;;;2.15;;
37379;SDS011;23252;-33.992;18.480;2023-05-21T14:21:45;16.35;;;2.80;;
37379;SDS011;23252;-33.992;18.480;2023-05-21T14:24:11;10.90;;;2.20;;
37379;SDS011;23252;-33.992;18.480;2023-05-21T14:26:41;11.77;;;2.17;;
37379;SDS011;23252;-33.992;18.480;2023-05-21T14:29:08;16.30;;;2.42;;
37379;SDS011;23252;-33.992;18.480;2023-05-21T14:31:35;14.45;;;1.88;;
37379;SDS011;23252;-33.992;18.480;2023-05-21T14:34:02;12.98;;;2.13;;
37379;SDS011;23252;-33.992;18.480;2023-05-21T14:36:31;13.20;;;2.53;;
37379;SDS011;23252;-33.992;18.480;2023-05-21T14:38:57;12.82;;;2.65;;
37379;SDS011;23252;-33.992;18.480;2023-05-21T14:41:24;14.83;;;2.33;;
37379;SDS011;23252;-33.992;18.480;2023-05-21T14:43:51;18.27;;;2.58;;
37379;SDS011;23252;-33.992;18.480;2023-05-21T14:46:18;14.27;;;2.40;;
37379;SDS011;23252;-33.992;18.480;2023-05-21T14:48:45;12.75;;;2.55;;
37379;SDS011;23252;-33.992;18.480;2023-05-21T14:51:12;18.60;;;2.77;;
37379;SDS011;23252;-33.992;18.480;2023-05-21T14:53:38;20.30;;;3.10;;
37379;SDS011;23252;-33.992;18.480;2023-05-21T14:56:05;11.93;;;2.30;;
37379;SDS011;23252;-33.992;18.480;2023-05-21T14:58:32;13.70;;;2.70;;
37379;SDS011;23252;-33.992;18.480;2023-05-21T15:00:58;21.93;;;3.60;;
37379;SDS011;23252;-33.992;18.480;2023-05-21T15:03:26;17.75;;;3.35;;
37379;SDS011;23252;-33.992;18.480;2023-05-21T15:05:53;25.02;;;3.83;;
37379;SDS011;23252;-33.992;18.480;2023-05-21T15:08:19;22.43;;;3.03;;